createdAt,value
2022-11-14T00:04:29.252Z,40.70
2022-11-14T00:09:52.343Z,40.15
2022-11-14T00:15:15.226Z,40.08
2022-11-14T00:20:37.101Z,40.10
2022-11-14T00:25:59.929Z,41.10
2022-11-14T00:31:21.652Z,40.60
2022-11-14T00:36:43.412Z,41.97
2022-11-14T00:42:06.590Z,40.10
2022-11-14T00:47:27.940Z,42.03
2022-11-14T00:52:49.521Z,42.10
2022-11-14T00:58:12.643Z,40.80
2022-11-14T01:03:34.081Z,40.88
2022-11-14T01:08:55.781Z,41.17
2022-11-14T01:14:18.757Z,40.78
2022-11-14T01:19:40.251Z,41.40
2022-11-14T01:25:02.064Z,41.78
2022-11-14T01:30:24.993Z,41.63
2022-11-14T01:35:46.347Z,41.50
2022-11-14T01:41:08.284Z,40.88
2022-11-14T01:46:34.680Z,42.65
2022-11-14T01:52:03.706Z,41.97
2022-11-14T01:57:30.154Z,41.50
2022-11-14T02:02:53.648Z,42.00
2022-11-14T02:08:17.575Z,42.75
2022-11-14T02:13:39.617Z,41.92
2022-11-14T02:19:02.502Z,42.83
2022-11-14T02:24:25.546Z,43.88
2022-11-14T02:29:46.944Z,41.88
2022-11-14T02:35:09.457Z,42.55
2022-11-14T02:40:32.419Z,43.80
2022-11-14T02:45:54.132Z,43.35
2022-11-14T02:51:15.707Z,44.63
2022-11-14T02:56:38.733Z,41.75
2022-11-14T03:02:00.237Z,43.53
2022-11-14T03:07:21.961Z,41.78
2022-11-14T03:12:44.649Z,45.13
2022-11-14T03:18:06.256Z,42.28
2022-11-14T03:23:27.920Z,41.63
2022-11-14T03:28:51.065Z,41.92
2022-11-14T03:34:12.585Z,40.38
2022-11-14T03:39:33.896Z,42.28
2022-11-14T03:44:56.708Z,41.92
2022-11-14T03:50:18.814Z,42.40
2022-11-14T03:55:40.242Z,42.88
2022-11-14T04:01:03.840Z,41.55
2022-11-14T04:06:25.348Z,42.38
2022-11-14T04:11:46.724Z,42.38
2022-11-14T04:17:09.585Z,42.22
2022-11-14T04:22:31.062Z,40.75
2022-11-14T04:27:52.699Z,42.92
2022-11-14T04:33:15.801Z,42.83
2022-11-14T04:38:39.266Z,42.55
2022-11-14T04:44:00.512Z,42.28
2022-11-14T04:49:23.469Z,44.47
2022-11-14T04:54:45.292Z,46.47
2022-11-14T05:00:08.461Z,43.38
2022-11-14T05:05:32.437Z,45.55
2022-11-14T05:10:53.976Z,45.72
2022-11-14T05:16:15.651Z,45.78
2022-11-14T05:21:38.722Z,45.13
2022-11-14T05:27:00.243Z,45.17
2022-11-14T05:32:22.488Z,43.65
2022-11-14T05:37:45.044Z,43.28
2022-11-14T05:43:06.979Z,45.35
2022-11-14T05:48:28.614Z,43.63
2022-11-14T05:53:51.749Z,44.80
2022-11-14T05:59:13.106Z,46.33
2022-11-14T06:04:34.624Z,45.20
2022-11-14T06:09:57.523Z,45.03
2022-11-14T06:15:19.394Z,50.45
2022-11-14T06:20:41.081Z,46.08
2022-11-14T06:26:05.958Z,43.95
2022-11-14T06:31:28.284Z,44.95
2022-11-14T06:36:49.636Z,43.30
2022-11-14T06:42:12.542Z,46.58
2022-11-14T06:47:34.172Z,46.33
2022-11-14T06:52:57.865Z,44.58
2022-11-14T06:58:20.764Z,46.80
2022-11-14T07:03:43.366Z,44.80
2022-11-14T07:09:05.426Z,44.30
2022-11-14T07:14:28.999Z,47.00
2022-11-14T07:19:50.338Z,42.92
2022-11-14T07:25:11.912Z,45.13
2022-11-14T07:30:35.492Z,49.35
2022-11-14T07:35:57.008Z,47.47
2022-11-14T07:41:18.636Z,46.50
2022-11-14T07:46:41.469Z,47.03
2022-11-14T07:52:03.236Z,46.50
2022-11-14T07:57:24.931Z,47.33
2022-11-14T08:02:48.618Z,43.72
2022-11-14T08:08:10.221Z,49.28
2022-11-14T08:13:33.716Z,48.83
2022-11-14T08:18:56.580Z,50.33
2022-11-14T08:24:18.144Z,47.63
2022-11-14T08:29:39.715Z,46.30
2022-11-14T08:35:02.601Z,45.85
2022-11-14T08:40:24.203Z,49.28
2022-11-14T08:45:45.573Z,45.67
2022-11-14T08:51:08.775Z,48.53
2022-11-14T08:56:30.554Z,48.05
2022-11-14T09:01:52.140Z,46.20
2022-11-14T09:07:15.288Z,46.78
2022-11-14T09:12:36.685Z,47.97
2022-11-14T09:17:58.974Z,49.80
2022-11-14T09:23:21.575Z,46.95
2022-11-14T09:28:43.048Z,49.17
2022-11-14T09:34:04.753Z,47.67
2022-11-14T09:39:27.684Z,48.63
2022-11-14T09:44:56.569Z,51.75
2022-11-14T09:50:25.639Z,50.50
2022-11-14T09:55:48.775Z,50.65
2022-11-14T10:01:19.882Z,45.13
2022-11-14T10:06:47.751Z,49.38
2022-11-14T10:12:19.072Z,46.47
2022-11-14T10:18:04.166Z,47.05
2022-11-14T10:23:34.221Z,45.17
2022-11-14T10:29:09.309Z,45.70
2022-11-14T10:34:34.754Z,46.10
2022-11-14T10:40:00.831Z,45.28
2022-11-14T10:45:27.830Z,45.25
2022-11-14T10:50:55.591Z,45.67
2022-11-14T10:56:17.757Z,46.55
2022-11-14T11:01:43.184Z,48.67
2022-11-14T11:07:39.244Z,50.60
2022-11-14T11:13:01.139Z,45.00
2022-11-14T11:18:30.353Z,48.65
2022-11-14T11:23:54.016Z,48.03
2022-11-14T11:29:19.086Z,44.97
2022-11-14T11:34:42.030Z,47.40
2022-11-14T11:40:07.660Z,44.53
2022-11-14T11:45:30.253Z,45.58
2022-11-14T11:50:52.929Z,45.03
2022-11-14T11:56:18.533Z,47.17
2022-11-14T12:01:40.318Z,47.78
2022-11-14T12:07:09.482Z,44.10
2022-11-14T12:12:46.350Z,45.08
2022-11-14T12:18:24.922Z,49.53
2022-11-14T12:24:26.959Z,45.95
2022-11-14T12:30:05.068Z,44.80
2022-11-14T12:35:29.440Z,43.08
2022-11-14T12:40:55.251Z,46.22
2022-11-14T12:46:17.026Z,43.45
2022-11-14T12:51:52.259Z,38.67
2022-11-14T12:57:45.934Z,38.45
2022-11-14T13:03:24.416Z,37.95
2022-11-14T13:09:18.810Z,37.70
2022-11-14T13:15:09.681Z,38.25
2022-11-14T13:20:51.100Z,38.55
2022-11-14T13:26:40.532Z,39.15
2022-11-14T13:32:03.661Z,38.72
2022-11-14T13:37:43.857Z,38.90
2022-11-14T13:43:15.375Z,38.03
2022-11-14T13:49:04.712Z,37.72
2022-11-14T13:54:26.457Z,39.53
2022-11-14T13:59:59.936Z,38.20
2022-11-14T14:05:35.315Z,38.53
2022-11-14T14:11:13.427Z,38.95
2022-11-14T14:16:41.386Z,42.20
2022-11-14T14:22:12.529Z,38.10
2022-11-14T14:27:41.756Z,38.45
2022-11-14T14:33:10.165Z,38.22
2022-11-14T14:38:33.244Z,39.10
2022-11-14T14:43:56.833Z,38.60
2022-11-14T14:49:23.009Z,41.08
2022-11-14T14:54:55.839Z,38.83
2022-11-14T15:00:21.729Z,38.63
2022-11-14T15:05:43.542Z,39.45
2022-11-14T15:11:07.844Z,38.38
2022-11-14T15:16:30.945Z,39.08
2022-11-14T15:22:04.182Z,38.42
2022-11-14T15:27:27.153Z,38.97
2022-11-14T15:32:51.130Z,49.45
2022-11-14T15:38:43.164Z,39.95
2022-11-14T15:44:05.496Z,38.67
2022-11-14T15:49:28.180Z,38.30
2022-11-14T15:54:49.560Z,39.75
2022-11-14T16:00:15.816Z,41.50
2022-11-14T16:05:37.247Z,39.70
2022-11-14T16:10:58.907Z,39.33
2022-11-14T16:16:22.262Z,39.58
2022-11-14T16:21:44.585Z,38.60
2022-11-14T16:27:06.467Z,38.25
2022-11-14T16:32:29.371Z,39.42
2022-11-14T16:37:51.330Z,40.22
2022-11-14T16:43:15.426Z,38.58
2022-11-14T16:48:38.218Z,43.90
2022-11-14T16:53:59.655Z,43.87
2022-11-14T16:59:21.284Z,39.10
2022-11-14T17:04:47.401Z,39.40
2022-11-14T17:10:10.258Z,39.08
2022-11-14T17:15:33.009Z,38.25
2022-11-14T17:20:56.234Z,38.63
2022-11-14T17:26:19.029Z,38.08
2022-11-14T17:31:46.691Z,38.47
2022-11-14T17:37:10.175Z,39.35
2022-11-14T17:42:31.961Z,38.30
2022-11-14T17:47:53.752Z,43.10
2022-11-14T17:53:16.577Z,38.45
2022-11-14T17:58:38.328Z,39.60
2022-11-14T18:04:04.680Z,39.33
2022-11-14T18:09:29.506Z,38.33
2022-11-14T18:14:51.323Z,38.80
2022-11-14T18:20:12.953Z,38.97
2022-11-14T18:25:35.914Z,38.58
2022-11-14T18:30:57.896Z,39.60
2022-11-14T18:36:22.400Z,38.83
2022-11-14T18:41:45.401Z,39.78
2022-11-14T18:47:06.892Z,38.70
2022-11-14T18:58:06.339Z,39.67
2022-11-14T19:03:34.028Z,39.38
2022-11-14T19:08:57.522Z,39.95
2022-11-14T19:14:21.980Z,38.88
2022-11-14T19:19:53.553Z,38.85
2022-11-14T19:25:18.513Z,38.78
2022-11-14T19:30:41.199Z,38.55
2022-11-14T19:36:07.327Z,39.03
2022-11-14T19:41:30.645Z,39.28
2022-11-14T19:47:00.809Z,39.80
2022-11-14T19:52:22.456Z,38.88
2022-11-14T19:57:44.143Z,38.58
2022-11-14T20:03:07.103Z,40.00
2022-11-14T20:08:29.059Z,39.38
2022-11-14T20:13:50.866Z,38.78
2022-11-14T20:19:16.095Z,39.22
2022-11-14T20:24:37.726Z,38.78
2022-11-14T20:29:59.438Z,39.20
2022-11-14T20:35:22.531Z,39.10
2022-11-14T20:40:43.838Z,38.80
2022-11-14T20:46:08.717Z,39.15
2022-11-14T20:51:32.073Z,39.10
2022-11-14T20:56:53.732Z,40.90
2022-11-14T21:02:15.868Z,39.63
2022-11-14T21:07:39.051Z,38.95
2022-11-14T21:13:20.432Z,39.55
2022-11-14T21:18:47.588Z,39.05
2022-11-14T21:24:11.285Z,39.17
2022-11-14T21:29:32.823Z,38.63
2022-11-14T21:34:54.438Z,39.90
2022-11-14T21:40:17.713Z,39.28
2022-11-14T21:45:39.114Z,39.53
2022-11-14T21:51:05.462Z,39.00
2022-11-14T21:56:29.574Z,39.35
2022-11-14T22:02:10.179Z,39.25
2022-11-14T22:07:31.712Z,39.25
2022-11-14T22:12:54.635Z,39.00
2022-11-14T22:18:16.526Z,38.85
2022-11-14T22:23:38.052Z,39.97
2022-11-14T22:29:01.534Z,39.47
2022-11-14T22:34:23.045Z,38.63
2022-11-14T22:39:44.679Z,39.58
2022-11-14T22:45:09.334Z,40.45
2022-11-14T22:50:30.686Z,39.58
2022-11-14T22:55:52.186Z,41.58
2022-11-14T23:01:20.387Z,38.67
2022-11-14T23:06:42.069Z,39.05
2022-11-14T23:12:03.716Z,38.75
2022-11-14T23:17:26.749Z,38.60
2022-11-14T23:22:48.396Z,38.97
2022-11-14T23:28:09.702Z,38.63
2022-11-14T23:33:33.517Z,40.65
2022-11-14T23:38:55.477Z,38.65
2022-11-14T23:44:16.988Z,38.75
2022-11-14T23:49:40.030Z,38.88
2022-11-14T23:55:02.624Z,38.67
